Time;durP1;ratioP1;P1;durP2;ratioP2;P2;SDS_P1;SDS_P2;PMS_P1;PMS_P2;Temp;Humidity;BMP_temperature;BMP_pressure;BME280_temperature;BME280_humidity;BME280_pressure;Samples;Min_cycle;Max_cycle;Signal;HPM_P1;HPM_P2
2022/07/24 00:02:23;;;;;;;2.08;1.38;;;13.00;58.00;;;;;;5032235;28;20212;-52
2022/07/24 00:04:56;;;;;;;2.58;1.50;;;13.00;57.90;;;;;;5030684;28;20227;-50
2022/07/24 00:07:27;;;;;;;2.70;1.50;;;13.00;57.90;;;;;;5031101;28;20184;-61
2022/07/24 00:09:57;;;;;;;3.05;1.80;;;13.10;57.90;;;;;;5031514;28;20207;-64
2022/07/24 00:12:28;;;;;;;1.73;1.20;;;13.10;57.90;;;;;;5031259;28;20227;-61
2022/07/24 00:15:01;;;;;;;3.28;1.60;;;13.10;57.90;;;;;;5031798;28;20687;-62
2022/07/24 00:17:31;;;;;;;2.85;1.40;;;13.10;57.80;;;;;;5031291;28;20208;-62
2022/07/24 00:20:02;;;;;;;1.70;1.30;;;13.10;57.80;;;;;;5030587;28;20534;-49
2022/07/24 00:22:33;;;;;;;2.63;1.45;;;13.20;57.80;;;;;;5029769;28;20231;-53
2022/07/24 00:25:04;;;;;;;3.50;1.10;;;13.20;57.80;;;;;;5028850;28;20215;-59
2022/07/24 00:27:34;;;;;;;1.70;1.10;;;13.20;57.70;;;;;;5030648;28;20198;-57
2022/07/24 00:30:08;;;;;;;2.17;1.27;;;13.20;57.70;;;;;;5031130;28;20192;-47
2022/07/24 00:32:38;;;;;;;1.35;1.10;;;13.20;57.70;;;;;;5031251;28;20215;-52
2022/07/24 00:35:10;;;;;;;1.40;1.15;;;13.30;57.80;;;;;;5030409;28;20291;-59
2022/07/24 00:37:41;;;;;;;3.88;1.20;;;13.30;57.80;;;;;;5031346;28;20196;-51
2022/07/24 00:40:12;;;;;;;1.48;1.13;;;13.40;57.80;;;;;;5030854;28;20600;-46
2022/07/24 00:42:43;;;;;;;1.98;1.30;;;13.40;57.90;;;;;;5031421;28;20204;-62
2022/07/24 00:45:16;;;;;;;2.03;1.20;;;13.40;57.90;;;;;;5030381;28;20235;-46
2022/07/24 00:47:46;;;;;;;2.30;1.20;;;13.40;57.90;;;;;;5031001;28;20188;-45
2022/07/24 00:50:17;;;;;;;2.38;1.20;;;13.40;57.90;;;;;;5030340;28;20557;-49
2022/07/24 00:52:48;;;;;;;2.75;1.58;;;13.40;57.80;;;;;;5030916;28;20208;-45
2022/07/24 00:55:19;;;;;;;1.90;1.60;;;13.40;57.70;;;;;;5030921;28;20211;-43
2022/07/24 00:57:50;;;;;;;2.65;2.00;;;13.50;57.80;;;;;;5030427;28;20287;-43
2022/07/24 01:00:24;;;;;;;3.65;1.95;;;13.50;57.80;;;;;;5031112;28;20253;-43
2022/07/24 01:02:55;;;;;;;3.08;2.10;;;13.50;57.90;;;;;;5030533;28;20223;-47
2022/07/24 01:05:26;;;;;;;1.92;1.73;;;13.50;58.00;;;;;;5030488;28;20231;-46
2022/07/24 01:07:56;;;;;;;4.18;1.55;;;13.60;58.20;;;;;;5030662;28;20192;-48
2022/07/24 01:10:27;;;;;;;1.90;1.70;;;13.60;58.90;;;;;;5030283;28;20660;-46
2022/07/24 01:12:58;;;;;;;2.42;1.63;;;13.70;59.40;;;;;;5025615;28;20223;-46
2022/07/24 01:15:31;;;;;;;1.88;1.40;;;13.70;59.60;;;;;;5029915;28;20240;-44
2022/07/24 01:18:04;;;;;;;1.88;1.63;;;13.80;59.60;;;;;;5030133;28;20188;-43
2022/07/24 01:20:40;;;;;;;3.70;1.70;;;13.90;59.50;;;;;;5030764;28;20703;-47
2022/07/24 01:23:11;;;;;;;3.85;1.95;;;13.90;59.50;;;;;;5030852;28;20211;-48
2022/07/24 01:25:42;;;;;;;4.05;2.45;;;14.00;59.80;;;;;;5031087;28;20246;-47
2022/07/24 01:28:12;;;;;;;4.70;2.50;;;14.00;59.70;;;;;;5030856;28;20208;-43
2022/07/24 01:30:43;;;;;;;6.38;2.88;;;14.10;59.90;;;;;;5029919;28;20200;-44
2022/07/24 01:33:14;;;;;;;6.97;3.40;;;14.20;59.90;;;;;;5029972;28;20266;-43
2022/07/24 01:35:47;;;;;;;7.05;3.08;;;14.30;59.90;;;;;;5030326;28;20196;-44
2022/07/24 01:38:17;;;;;;;5.15;3.05;;;14.40;59.90;;;;;;5030743;28;20540;-47
2022/07/24 01:40:55;;;;;;;4.78;3.40;;;14.50;59.70;;;;;;5029152;28;20660;-55
2022/07/24 01:43:25;;;;;;;6.07;3.42;;;14.60;59.60;;;;;;5030864;28;20239;-45
2022/07/24 01:45:56;;;;;;;6.85;2.72;;;14.60;60.20;;;;;;5029921;28;20224;-47
2022/07/24 01:48:27;;;;;;;4.05;2.85;;;14.70;59.40;;;;;;5030803;28;20200;-54
2022/07/24 01:50:59;;;;;;;6.65;3.05;;;14.80;59.30;;;;;;5030165;28;20691;-49
2022/07/24 01:53:30;;;;;;;4.75;2.75;;;14.90;59.40;;;;;;5029332;28;20700;-54
2022/07/24 01:56:01;;;;;;;6.32;3.40;;;14.90;59.00;;;;;;5030892;28;20216;-61
2022/07/24 01:58:32;;;;;;;5.65;2.88;;;15.00;59.00;;;;;;5029958;28;20204;-56
2022/07/24 02:01:02;;;;;;;3.33;2.50;;;15.10;58.90;;;;;;5030202;28;20577;-44
2022/07/24 02:03:33;;;;;;;5.68;2.50;;;15.10;58.70;;;;;;5030162;28;20200;-45
2022/07/24 02:06:06;;;;;;;4.53;2.65;;;15.20;58.60;;;;;;5030094;28;20949;-44
2022/07/24 02:08:36;;;;;;;4.40;2.80;;;15.20;58.50;;;;;;5029903;28;20212;-50
2022/07/24 02:11:07;;;;;;;5.38;2.60;;;15.20;58.40;;;;;;5030867;28;20216;-45
2022/07/24 02:13:38;;;;;;;3.70;2.60;;;15.20;58.30;;;;;;5030200;28;20234;-44
2022/07/24 02:16:09;;;;;;;4.95;2.47;;;15.20;58.30;;;;;;5026790;28;20208;-46
2022/07/24 02:18:40;;;;;;;4.70;2.63;;;15.20;58.20;;;;;;5030300;28;20211;-46
2022/07/24 02:21:13;;;;;;;4.75;2.80;;;15.20;58.30;;;;;;5029117;28;20216;-44
2022/07/24 02:23:43;;;;;;;3.70;2.15;;;15.30;58.30;;;;;;5030199;28;20206;-45
2022/07/24 02:26:14;;;;;;;4.45;2.42;;;15.30;58.20;;;;;;5030318;28;20220;-48
2022/07/24 02:28:45;;;;;;;4.65;2.45;;;15.30;58.20;;;;;;5031020;28;20652;-51
2022/07/24 02:31:15;;;;;;;3.15;2.67;;;15.20;58.10;;;;;;5033387;28;20211;-45
2022/07/24 02:33:46;;;;;;;3.83;2.40;;;15.30;58.20;;;;;;5033875;28;20207;-44
2022/07/24 02:36:19;;;;;;;4.70;2.33;;;15.30;58.20;;;;;;5033394;28;20299;-44
2022/07/24 02:38:49;;;;;;;3.22;2.00;;;15.30;58.20;;;;;;5032777;28;20204;-52
2022/07/24 02:41:21;;;;;;;3.85;2.45;;;15.20;58.20;;;;;;5032799;28;20216;-46
2022/07/24 02:43:51;;;;;;;3.92;2.72;;;15.20;58.20;;;;;;5033616;28;20204;-45
2022/07/24 02:46:22;;;;;;;4.82;2.25;;;15.20;58.20;;;;;;5033553;28;20607;-47
2022/07/24 02:48:53;;;;;;;2.83;2.50;;;15.20;58.20;;;;;;5032998;28;20200;-44
2022/07/24 02:51:25;;;;;;;3.35;2.22;;;15.20;58.30;;;;;;5033079;28;20231;-50
2022/07/24 02:53:56;;;;;;;3.58;2.50;;;15.10;58.20;;;;;;5032489;28;20232;-46
2022/07/24 02:56:26;;;;;;;3.40;2.30;;;15.10;58.30;;;;;;5032416;28;20210;-58
2022/07/24 02:58:57;;;;;;;4.05;2.80;;;15.20;58.40;;;;;;5031984;28;20227;-49
2022/07/24 03:01:28;;;;;;;3.42;2.00;;;15.10;58.30;;;;;;5033347;28;20235;-48
2022/07/24 03:03:58;;;;;;;4.15;2.83;;;15.10;58.30;;;;;;5032676;28;20299;-45
2022/07/24 03:06:31;;;;;;;4.40;2.60;;;15.10;58.40;;;;;;5033203;28;20224;-44
2022/07/24 03:09:02;;;;;;;3.83;2.28;;;15.10;58.30;;;;;;5032841;28;20214;-46
2022/07/24 03:11:32;;;;;;;4.25;2.83;;;15.10;58.40;;;;;;5022458;28;20220;-51
2022/07/24 03:14:03;;;;;;;4.15;2.70;;;15.10;58.40;;;;;;5024110;28;20243;-45
2022/07/24 03:16:34;;;;;;;4.30;2.65;;;15.10;58.40;;;;;;5033190;28;20219;-52
2022/07/24 03:19:05;;;;;;;3.42;2.67;;;15.10;58.40;;;;;;5033222;28;20230;-46
2022/07/24 03:21:37;;;;;;;4.10;2.15;;;15.10;58.40;;;;;;5032221;28;20228;-55
2022/07/24 03:24:08;;;;;;;3.03;2.40;;;15.00;58.40;;;;;;5032701;28;20219;-51
2022/07/24 03:26:39;;;;;;;6.50;2.60;;;15.00;58.40;;;;;;5032105;28;20224;-57
2022/07/24 03:29:09;;;;;;;3.83;2.13;;;15.00;58.50;;;;;;5031981;28;20200;-50
2022/07/24 03:31:41;;;;;;;4.40;2.58;;;15.00;58.50;;;;;;5031522;28;20228;-48
2022/07/24 03:34:11;;;;;;;5.03;2.50;;;15.00;58.50;;;;;;5031228;28;20223;-47
2022/07/24 03:36:44;;;;;;;3.60;2.50;;;15.00;58.50;;;;;;5032860;28;20200;-52
2022/07/24 03:39:15;;;;;;;3.42;2.30;;;15.00;58.50;;;;;;5032037;28;20200;-46
2022/07/24 03:41:45;;;;;;;4.38;2.72;;;15.00;58.60;;;;;;5032873;28;20243;-43
2022/07/24 03:44:16;;;;;;;3.70;2.30;;;15.00;58.50;;;;;;5031354;28;20204;-47
2022/07/24 03:46:47;;;;;;;3.70;2.50;;;15.00;58.60;;;;;;5032310;28;20220;-46
2022/07/24 03:49:18;;;;;;;4.18;2.70;;;15.00;58.90;;;;;;5031729;28;20219;-38
2022/07/24 03:51:50;;;;;;;3.67;2.70;;;15.00;59.40;;;;;;5032624;28;20912;-38
2022/07/24 03:54:21;;;;;;;3.33;2.53;;;15.00;59.40;;;;;;5032192;28;20292;-39
2022/07/24 03:56:52;;;;;;;5.22;2.45;;;15.10;59.30;;;;;;5032660;28;20208;-41
2022/07/24 03:59:23;;;;;;;4.15;2.45;;;15.10;59.20;;;;;;5031756;28;20582;-38
2022/07/24 04:01:53;;;;;;;4.55;2.88;;;15.20;59.20;;;;;;5031984;28;20223;-38
2022/07/24 04:04:24;;;;;;;3.28;2.67;;;15.20;59.10;;;;;;5031233;28;20208;-39
2022/07/24 04:06:57;;;;;;;4.03;2.70;;;15.20;59.00;;;;;;5031397;28;20227;-38
2022/07/24 04:09:27;;;;;;;4.32;2.75;;;15.20;59.00;;;;;;5031864;28;20219;-38
2022/07/24 04:11:58;;;;;;;4.10;2.55;;;15.30;58.90;;;;;;5017607;28;20232;-39
2022/07/24 04:14:29;;;;;;;2.80;2.47;;;15.30;58.80;;;;;;5024922;28;20203;-44
2022/07/24 04:16:59;;;;;;;4.07;2.75;;;15.30;58.70;;;;;;5031636;28;20215;-40
2022/07/24 04:19:30;;;;;;;2.92;2.40;;;15.30;58.60;;;;;;5031818;28;20660;-44
2022/07/24 04:22:03;;;;;;;3.97;2.65;;;15.40;58.70;;;;;;5031032;28;20599;-41
2022/07/24 04:24:33;;;;;;;3.15;2.40;;;15.40;58.60;;;;;;5031240;28;20215;-39
2022/07/24 04:27:04;;;;;;;3.08;2.60;;;15.40;58.50;;;;;;5031981;28;20220;-44
2022/07/24 04:29:35;;;;;;;4.25;2.78;;;15.40;58.50;;;;;;5030929;28;20204;-40
2022/07/24 04:32:06;;;;;;;3.47;2.60;;;15.40;58.40;;;;;;5032075;28;20228;-45
2022/07/24 04:34:36;;;;;;;3.25;2.70;;;15.40;58.30;;;;;;5031312;28;20205;-40
2022/07/24 04:37:09;;;;;;;3.75;2.83;;;15.40;58.30;;;;;;5030910;28;20567;-38
2022/07/24 04:39:40;;;;;;;3.85;2.70;;;15.40;58.20;;;;;;5030964;28;20196;-42
2022/07/24 04:42:11;;;;;;;2.83;2.53;;;15.50;58.30;;;;;;5031106;28;20224;-41
2022/07/24 04:44:41;;;;;;;2.83;2.33;;;15.50;58.20;;;;;;5030490;28;20197;-39
2022/07/24 04:47:12;;;;;;;2.83;2.30;;;15.40;58.10;;;;;;5031649;28;20250;-39
2022/07/24 04:49:43;;;;;;;2.67;2.47;;;15.50;58.20;;;;;;5031068;28;20204;-38
2022/07/24 04:52:15;;;;;;;3.65;2.55;;;15.40;58.10;;;;;;5030273;28;20231;-43
2022/07/24 04:54:46;;;;;;;2.88;2.50;;;15.40;58.00;;;;;;5031311;28;20210;-40
2022/07/24 04:57:17;;;;;;;3.47;2.63;;;15.40;57.90;;;;;;5031754;28;20655;-38
2022/07/24 04:59:48;;;;;;;2.72;2.53;;;15.50;57.90;;;;;;5031304;28;20216;-39
2022/07/24 05:02:18;;;;;;;3.72;3.00;;;15.40;57.90;;;;;;5030217;28;20235;-42
2022/07/24 05:04:49;;;;;;;3.40;2.72;;;15.50;58.00;;;;;;5030663;28;20208;-41
2022/07/24 05:07:22;;;;;;;3.25;2.67;;;15.50;57.90;;;;;;5030484;28;20234;-42
2022/07/24 05:09:52;;;;;;;2.97;2.50;;;15.40;57.80;;;;;;5031279;28;20228;-41
2022/07/24 05:12:23;;;;;;;3.55;3.05;;;15.40;57.80;;;;;;5030956;28;20231;-39
2022/07/24 05:14:54;;;;;;;3.08;2.78;;;15.50;57.80;;;;;;5027790;28;20596;-39
2022/07/24 05:17:24;;;;;;;3.47;2.75;;;15.50;57.80;;;;;;5030619;28;20208;-46
2022/07/24 05:19:55;;;;;;;4.72;3.35;;;15.40;57.80;;;;;;5031057;28;20216;-40
2022/07/24 05:22:27;;;;;;;3.50;2.90;;;15.50;57.80;;;;;;5047029;28;20623;-38
2022/07/24 05:24:58;;;;;;;3.45;3.00;;;15.40;57.80;;;;;;5034967;28;20207;-46
2022/07/24 05:27:29;;;;;;;3.40;2.92;;;15.50;57.80;;;;;;5046381;28;20227;-43
2022/07/24 05:30:00;;;;;;;3.50;3.03;;;15.40;57.80;;;;;;5030921;28;20223;-44
2022/07/24 05:32:30;;;;;;;4.15;3.30;;;15.40;57.80;;;;;;5030180;28;20220;-38
2022/07/24 05:35:01;;;;;;;4.20;3.25;;;15.40;57.80;;;;;;5031043;28;20648;-43
2022/07/24 05:37:34;;;;;;;3.83;3.42;;;15.40;57.90;;;;;;5030668;28;20207;-42
2022/07/24 05:40:05;;;;;;;4.22;3.50;;;15.30;57.90;;;;;;5030881;28;20202;-42
2022/07/24 05:42:36;;;;;;;4.30;3.15;;;15.30;57.80;;;;;;5031235;28;20227;-48
2022/07/24 05:45:07;;;;;;;4.15;3.33;;;15.30;57.80;;;;;;5030424;28;20196;-50
2022/07/24 05:47:41;;;;;;;3.75;3.30;;;15.30;57.70;;;;;;5029838;28;20266;-54
2022/07/24 05:50:14;;;;;;;4.25;3.08;;;15.30;57.70;;;;;;5030449;28;20207;-42
2022/07/24 05:52:46;;;;;;;4.30;3.53;;;15.30;57.80;;;;;;5030457;28;20220;-47
2022/07/24 05:55:17;;;;;;;4.65;3.42;;;15.30;57.80;;;;;;5030459;28;20200;-38
2022/07/24 05:57:48;;;;;;;4.28;3.30;;;15.30;57.90;;;;;;5030524;28;20215;-43
2022/07/24 06:00:20;;;;;;;3.70;3.30;;;15.20;57.90;;;;;;5030761;28;20196;-45
2022/07/24 06:02:50;;;;;;;3.92;3.60;;;15.20;58.00;;;;;;5026576;28;20231;-45
2022/07/24 06:05:21;;;;;;;3.90;3.50;;;15.20;58.00;;;;;;5034260;28;20203;-45
2022/07/24 06:07:54;;;;;;;3.92;3.40;;;15.20;58.10;;;;;;5034951;28;20235;-50
2022/07/24 06:10:24;;;;;;;3.92;3.25;;;15.10;58.10;;;;;;5034686;28;20207;-40
2022/07/24 06:12:55;;;;;;;4.32;3.38;;;15.10;58.20;;;;;;5034500;28;20216;-45
2022/07/24 06:15:26;;;;;;;4.20;3.67;;;15.00;58.20;;;;;;5034326;28;20204;-39
2022/07/24 06:17:57;;;;;;;3.92;3.40;;;15.00;58.20;;;;;;5033475;28;20204;-40
2022/07/24 06:20:27;;;;;;;4.35;3.58;;;15.00;58.20;;;;;;5033225;28;20204;-38
2022/07/24 06:23:00;;;;;;;4.93;3.85;;;15.00;58.20;;;;;;5033820;28;20227;-51
2022/07/24 06:25:31;;;;;;;6.63;3.92;;;15.00;58.40;;;;;;5034323;28;20196;-44
2022/07/24 06:28:01;;;;;;;4.25;3.60;;;15.00;58.40;;;;;;5038382;28;20228;-43
2022/07/24 06:30:32;;;;;;;4.28;3.72;;;15.00;58.40;;;;;;5033932;28;20205;-44
2022/07/24 06:33:03;;;;;;;4.68;4.03;;;15.00;58.50;;;;;;5034049;28;20224;-47
2022/07/24 06:35:34;;;;;;;4.50;3.70;;;15.00;58.50;;;;;;5033848;28;20196;-45
2022/07/24 06:38:06;;;;;;;4.72;3.92;;;14.90;58.40;;;;;;5033861;28;20242;-40
2022/07/24 06:40:37;;;;;;;4.93;3.90;;;14.90;58.50;;;;;;5033742;28;20203;-38
2022/07/24 06:43:08;;;;;;;4.57;4.00;;;14.90;58.60;;;;;;5034018;28;20212;-43
2022/07/24 06:45:39;;;;;;;4.70;3.50;;;14.90;58.60;;;;;;5033298;28;20192;-41
2022/07/24 06:48:13;;;;;;;5.28;3.75;;;14.90;58.70;;;;;;5033065;28;20592;-41
2022/07/24 06:50:43;;;;;;;4.60;3.70;;;14.80;58.70;;;;;;5034051;28;20239;-44
2022/07/24 06:53:16;;;;;;;3.92;3.53;;;14.80;58.70;;;;;;5033853;28;20232;-38
2022/07/24 06:55:47;;;;;;;4.00;3.60;;;14.80;58.70;;;;;;5033259;28;20192;-44
2022/07/24 06:58:17;;;;;;;3.90;3.55;;;14.80;58.70;;;;;;5029887;28;20664;-45
2022/07/24 07:00:48;;;;;;;4.10;3.70;;;14.80;58.70;;;;;;5032765;28;20222;-40
2022/07/24 07:03:19;;;;;;;4.25;3.85;;;14.80;58.70;;;;;;5032657;28;20218;-44
2022/07/24 07:05:50;;;;;;;3.53;3.22;;;14.80;58.80;;;;;;5033289;28;20200;-38
2022/07/24 07:08:22;;;;;;;4.00;3.60;;;14.80;58.90;;;;;;5033425;28;20697;-40
2022/07/24 07:10:53;;;;;;;3.63;3.33;;;14.80;58.90;;;;;;5033652;28;20219;-38
2022/07/24 07:13:24;;;;;;;3.75;3.40;;;14.80;58.90;;;;;;5022508;28;20274;-45
2022/07/24 07:15:55;;;;;;;4.28;3.38;;;14.70;58.90;;;;;;5023589;28;20547;-45
2022/07/24 07:18:25;;;;;;;3.75;3.30;;;14.70;58.90;;;;;;5013787;28;20205;-42
2022/07/24 07:20:56;;;;;;;4.07;3.33;;;14.70;59.00;;;;;;5018194;28;20200;-38
2022/07/24 07:23:29;;;;;;;4.15;3.45;;;14.70;59.10;;;;;;5033092;28;20216;-43
2022/07/24 07:25:59;;;;;;;4.22;3.72;;;14.70;59.10;;;;;;5032609;28;20211;-44
2022/07/24 07:28:30;;;;;;;3.40;3.10;;;14.70;59.10;;;;;;5032500;28;20243;-43
2022/07/24 07:31:01;;;;;;;3.38;2.83;;;14.70;59.10;;;;;;5030042;28;20207;-38
2022/07/24 07:33:31;;;;;;;4.65;3.50;;;14.70;59.10;;;;;;5030431;28;20224;-43
2022/07/24 07:36:02;;;;;;;3.65;3.35;;;14.70;59.10;;;;;;5032891;28;20196;-49
2022/07/24 07:38:37;;;;;;;3.72;3.35;;;14.70;59.10;;;;;;5032902;28;20203;-41
2022/07/24 07:41:19;;;;;;;3.80;3.42;;;14.70;59.10;;;;;;5032224;28;20196;-37
2022/07/24 07:43:49;;;;;;;3.50;3.20;;;14.70;59.10;;;;;;5031797;28;20192;-38
2022/07/24 07:46:20;;;;;;;4.05;3.50;;;14.70;59.20;;;;;;5031740;28;20196;-43
2022/07/24 07:48:51;;;;;;;4.65;3.35;;;14.60;59.20;;;;;;5032306;28;20226;-37
2022/07/24 07:51:21;;;;;;;4.05;3.60;;;14.60;59.20;;;;;;5032715;28;20207;-39
2022/07/24 07:53:54;;;;;;;3.72;3.30;;;14.60;59.30;;;;;;5032927;28;20203;-42
2022/07/24 07:56:25;;;;;;;3.67;3.25;;;14.60;59.30;;;;;;5032707;28;20661;-41
2022/07/24 07:58:55;;;;;;;4.03;3.35;;;14.60;59.40;;;;;;5032691;28;20203;-42
2022/07/24 08:01:26;;;;;;;3.80;3.40;;;14.60;59.40;;;;;;5031886;28;20202;-45
2022/07/24 08:03:57;;;;;;;4.68;3.60;;;14.60;59.40;;;;;;5031558;28;20390;-45
2022/07/24 08:06:27;;;;;;;3.58;3.20;;;14.60;59.30;;;;;;5030071;28;20196;-46
2022/07/24 08:09:00;;;;;;;3.75;3.00;;;14.60;59.30;;;;;;5032276;28;20231;-42
2022/07/24 08:11:31;;;;;;;3.78;3.38;;;14.60;59.30;;;;;;5031934;28;20205;-44
2022/07/24 08:14:02;;;;;;;3.40;3.10;;;14.60;59.30;;;;;;5032226;28;20207;-37
2022/07/24 08:16:32;;;;;;;3.55;3.20;;;14.50;59.30;;;;;;5031742;28;20223;-48
2022/07/24 08:19:03;;;;;;;4.00;3.33;;;14.60;59.40;;;;;;5032360;28;20199;-40
2022/07/24 08:21:34;;;;;;;3.65;3.30;;;14.50;59.40;;;;;;5032063;28;20563;-37
2022/07/24 08:24:07;;;;;;;3.90;3.28;;;14.50;59.40;;;;;;5032115;28;20200;-47
2022/07/24 08:26:38;;;;;;;3.90;3.00;;;14.50;59.50;;;;;;5011890;28;20719;-49
2022/07/24 08:29:08;;;;;;;3.22;2.92;;;14.50;59.50;;;;;;5012218;28;20315;-48
2022/07/24 08:31:39;;;;;;;3.83;3.08;;;14.50;59.60;;;;;;5013537;28;20220;-39
2022/07/24 08:34:10;;;;;;;3.28;2.97;;;14.50;59.50;;;;;;5032357;28;20215;-38
2022/07/24 08:36:41;;;;;;;3.22;2.92;;;14.50;59.60;;;;;;5031526;28;20214;-38
2022/07/24 08:39:15;;;;;;;4.05;3.35;;;14.50;59.50;;;;;;5031698;28;20207;-42
2022/07/24 08:41:46;;;;;;;4.50;3.30;;;14.50;59.50;;;;;;5031677;28;20262;-43
2022/07/24 08:44:17;;;;;;;3.88;3.40;;;14.50;59.40;;;;;;5031558;28;20192;-38
2022/07/24 08:46:47;;;;;;;3.65;3.00;;;14.50;59.50;;;;;;5031442;28;20559;-42
2022/07/24 08:49:18;;;;;;;3.85;3.35;;;14.50;59.50;;;;;;5031737;28;20224;-40
2022/07/24 08:51:51;;;;;;;3.22;2.92;;;14.50;59.60;;;;;;5031271;28;20220;-43
2022/07/24 08:54:23;;;;;;;4.15;3.58;;;14.50;59.60;;;;;;5031099;28;20200;-39
2022/07/24 08:56:54;;;;;;;3.60;3.08;;;14.50;59.60;;;;;;5031362;28;20192;-40
2022/07/24 08:59:25;;;;;;;5.00;3.65;;;14.50;59.70;;;;;;5031350;28;20208;-38
2022/07/24 09:01:56;;;;;;;4.43;3.50;;;14.50;59.70;;;;;;5030375;28;20239;-40
2022/07/24 09:04:37;;;;;;;4.68;3.72;;;14.40;59.70;;;;;;5031087;28;20196;-39
2022/07/24 09:07:10;;;;;;;3.63;3.33;;;14.40;59.70;;;;;;5027993;28;20238;-40
2022/07/24 09:09:44;;;;;;;4.13;3.13;;;14.40;59.70;;;;;;5031136;28;20196;-38
2022/07/24 09:12:16;;;;;;;4.10;3.47;;;14.40;59.70;;;;;;5031391;28;20215;-44
2022/07/24 09:14:49;;;;;;;4.32;3.63;;;14.40;59.60;;;;;;5031172;28;20222;-39
2022/07/24 09:17:21;;;;;;;4.05;3.65;;;14.50;59.70;;;;;;5030671;28;20204;-38
2022/07/24 09:19:53;;;;;;;3.80;3.47;;;14.40;59.70;;;;;;5031130;28;20695;-38
2022/07/24 09:22:40;;;;;;;3.95;3.55;;;14.40;59.70;;;;;;5030900;28;20230;-40
2022/07/24 09:25:15;;;;;;;3.83;3.40;;;14.40;59.70;;;;;;5031271;28;20759;-40
2022/07/24 09:27:50;;;;;;;3.40;2.88;;;14.40;59.70;;;;;;5031193;28;20223;-41
2022/07/24 09:30:31;;;;;;;3.50;3.20;;;14.40;59.70;;;;;;5030923;28;20238;-38
2022/07/24 09:33:04;;;;;;;4.80;3.40;;;14.40;59.80;;;;;;5029565;28;20227;-40
2022/07/24 09:35:37;;;;;;;3.83;3.40;;;14.40;59.80;;;;;;5030875;28;20196;-38
2022/07/24 09:38:08;;;;;;;3.65;2.90;;;14.40;59.80;;;;;;5032552;28;20200;-38
2022/07/24 09:40:42;;;;;;;3.30;3.00;;;14.30;59.80;;;;;;5034895;28;20204;-38
2022/07/24 09:43:24;;;;;;;4.45;3.17;;;14.30;59.80;;;;;;5034920;28;20219;-41
2022/07/24 09:46:00;;;;;;;6.75;3.60;;;14.40;61.40;;;;;;5035696;28;20203;-47
2022/07/24 09:48:33;;;;;;;3.83;3.17;;;14.50;63.30;;;;;;5034464;28;20235;-38
2022/07/24 09:51:05;;;;;;;3.50;3.17;;;14.60;63.80;;;;;;5034658;28;20207;-38
2022/07/24 09:53:36;;;;;;;4.00;3.40;;;14.70;63.70;;;;;;5034701;28;20704;-40
2022/07/24 09:56:11;;;;;;;4.90;3.50;;;14.80;63.30;;;;;;5034572;28;20203;-41
2022/07/24 09:58:50;;;;;;;3.92;3.25;;;15.00;62.90;;;;;;5029487;28;20317;-42
2022/07/24 10:01:22;;;;;;;6.80;3.78;;;15.10;62.80;;;;;;5014087;28;20203;-37
2022/07/24 10:03:55;;;;;;;4.13;3.72;;;15.20;62.90;;;;;;5021137;28;20192;-41
2022/07/24 10:06:28;;;;;;;4.60;3.88;;;15.20;62.70;;;;;;5026440;28;20598;-48
2022/07/24 10:09:01;;;;;;;5.25;3.58;;;15.30;62.50;;;;;;5033830;28;20691;-41
2022/07/24 10:11:37;;;;;;;4.18;3.58;;;15.30;62.50;;;;;;5034218;28;20198;-54
2022/07/24 10:14:08;;;;;;;4.97;3.47;;;15.30;62.40;;;;;;5033000;28;20195;-51
2022/07/24 10:16:44;;;;;;;4.30;3.83;;;15.30;62.20;;;;;;5033922;28;20200;-56
2022/07/24 10:19:19;;;;;;;5.07;3.50;;;15.20;62.00;;;;;;5033086;28;20196;-51
2022/07/24 10:21:57;;;;;;;4.18;3.42;;;15.20;61.90;;;;;;5034239;28;20227;-58
2022/07/24 10:24:51;;;;;;;4.40;3.97;;;15.20;61.70;;;;;;5033843;28;20219;-37
2022/07/24 10:27:29;;;;;;;5.72;3.78;;;15.10;61.70;;;;;;5013866;28;20204;-54
2022/07/24 10:30:02;;;;;;;4.32;3.88;;;15.10;61.50;;;;;;5033220;28;20290;-50
2022/07/24 10:32:34;;;;;;;4.63;3.40;;;15.10;61.50;;;;;;5033066;28;20574;-37
2022/07/24 10:35:15;;;;;;;5.18;3.38;;;15.10;61.60;;;;;;5031998;28;20195;-39
2022/07/24 10:38:01;;;;;;;3.55;3.17;;;15.10;61.70;;;;;;5013916;28;20203;-48
2022/07/24 10:40:44;;;;;;;3.83;3.40;;;15.10;61.60;;;;;;5033364;28;20686;-54
2022/07/24 10:43:18;;;;;;;4.57;4.03;;;15.10;61.50;;;;;;5033032;28;20688;-45
2022/07/24 10:46:14;;;;;;;3.92;3.53;;;15.00;61.30;;;;;;5033444;28;20199;-43
2022/07/24 10:48:44;;;;;;;4.03;3.60;;;15.00;61.30;;;;;;5032691;28;20617;-39
2022/07/24 10:51:16;;;;;;;4.25;3.47;;;15.00;61.30;;;;;;5032455;28;20215;-37
2022/07/24 10:53:54;;;;;;;4.00;3.60;;;14.90;61.20;;;;;;5032700;28;20192;-38
2022/07/24 10:56:29;;;;;;;4.82;3.80;;;14.90;61.20;;;;;;5033431;28;20200;-37
2022/07/24 10:59:05;;;;;;;4.13;3.72;;;14.90;61.20;;;;;;5032329;28;20199;-41
2022/07/24 11:01:38;;;;;;;3.83;3.42;;;14.80;61.10;;;;;;5032969;28;20231;-46
2022/07/24 11:04:29;;;;;;;3.78;3.47;;;14.80;61.10;;;;;;5029904;28;20203;-38
2022/07/24 11:07:09;;;;;;;4.85;3.65;;;14.80;61.10;;;;;;5033102;28;20200;-46
2022/07/24 11:09:58;;;;;;;4.75;3.90;;;14.80;61.00;;;;;;5032447;28;20215;-48
2022/07/24 11:12:33;;;;;;;5.55;3.75;;;14.70;61.00;;;;;;5033339;28;20223;-39
2022/07/24 11:17:53;;;;;;;4.20;3.80;;;14.60;60.90;;;;;;5032469;28;20195;-37
2022/07/24 11:20:25;;;;;;;5.40;3.90;;;14.60;61.00;;;;;;5032541;28;20544;-44
2022/07/24 11:22:57;;;;;;;4.90;4.05;;;14.60;61.00;;;;;;5032976;28;20235;-37
2022/07/24 11:25:28;;;;;;;4.47;3.83;;;14.60;61.10;;;;;;5033079;28;20597;-41
2022/07/24 11:28:01;;;;;;;4.18;3.78;;;14.60;61.10;;;;;;5031105;28;20211;-37
2022/07/24 11:30:34;;;;;;;4.43;3.92;;;14.50;61.00;;;;;;5031118;28;20649;-38
2022/07/24 11:33:04;;;;;;;5.88;3.90;;;14.50;60.90;;;;;;5031080;28;20216;-37
2022/07/24 11:35:37;;;;;;;5.82;4.32;;;14.50;60.90;;;;;;5031246;28;20207;-43
2022/07/24 11:38:09;;;;;;;5.20;4.55;;;14.50;60.90;;;;;;5030507;28;20196;-38
2022/07/24 11:40:40;;;;;;;5.25;4.55;;;14.50;60.90;;;;;;5030846;28;20283;-39
2022/07/24 11:43:12;;;;;;;4.97;4.47;;;14.50;60.90;;;;;;5030916;28;20212;-38
2022/07/24 11:45:54;;;;;;;4.53;4.10;;;14.50;60.90;;;;;;5031542;28;20290;-40
2022/07/24 11:48:25;;;;;;;5.50;4.40;;;14.40;60.80;;;;;;5030803;28;20274;-37
2022/07/24 11:51:07;;;;;;;5.38;4.10;;;14.40;60.90;;;;;;5031384;28;20204;-40
2022/07/24 11:53:37;;;;;;;4.65;4.25;;;14.40;60.90;;;;;;5027477;28;20226;-42
2022/07/24 11:56:09;;;;;;;4.15;3.70;;;14.30;60.90;;;;;;5031328;28;20192;-37
2022/07/24 11:58:42;;;;;;;4.85;4.35;;;14.30;60.90;;;;;;5030856;28;20283;-42
2022/07/24 12:01:25;;;;;;;4.93;4.40;;;14.30;60.90;;;;;;5030310;28;20200;-43
2022/07/24 12:03:59;;;;;;;5.00;4.50;;;14.30;60.90;;;;;;5031028;28;20211;-42
2022/07/24 12:06:30;;;;;;;5.32;4.47;;;14.30;60.80;;;;;;5030983;28;20200;-41
2022/07/24 12:09:08;;;;;;;5.22;4.50;;;14.30;60.80;;;;;;5030622;28;20243;-38
2022/07/24 12:11:39;;;;;;;5.95;4.43;;;14.30;60.90;;;;;;5030673;28;20196;-41
2022/07/24 12:14:16;;;;;;;6.05;4.43;;;14.30;60.90;;;;;;5030334;28;20286;-40
2022/07/24 12:16:54;;;;;;;5.10;4.28;;;14.30;60.90;;;;;;5030686;28;20196;-39
2022/07/24 12:19:26;;;;;;;5.22;4.40;;;14.30;60.90;;;;;;5030775;28;20219;-40
2022/07/24 12:21:57;;;;;;;5.10;4.60;;;14.30;60.90;;;;;;5030755;28;20228;-44
2022/07/24 12:24:28;;;;;;;5.80;4.53;;;14.20;60.70;;;;;;5013525;28;20213;-37
2022/07/24 12:27:00;;;;;;;5.60;4.38;;;14.20;60.70;;;;;;5030107;28;20561;-38
2022/07/24 12:29:31;;;;;;;6.07;4.93;;;14.20;60.80;;;;;;5030374;28;20224;-44
2022/07/24 12:32:18;;;;;;;5.13;4.40;;;14.20;60.80;;;;;;5029593;28;20643;-37
2022/07/24 12:34:51;;;;;;;4.72;4.32;;;14.20;60.80;;;;;;5030087;28;20196;-37
2022/07/24 12:37:22;;;;;;;5.18;4.53;;;14.20;60.70;;;;;;5029843;28;20326;-43
2022/07/24 12:39:54;;;;;;;5.75;4.47;;;14.20;60.80;;;;;;5030415;28;20208;-39
2022/07/24 12:42:33;;;;;;;5.03;4.25;;;14.20;60.80;;;;;;5029976;28;20224;-40
2022/07/24 12:45:11;;;;;;;5.75;4.15;;;14.20;60.70;;;;;;5030660;28;20235;-37
2022/07/24 12:48:17;;;;;;;4.40;3.92;;;14.10;60.70;;;;;;5030157;28;20204;-37
2022/07/24 12:53:46;;;;;;;4.50;4.07;;;14.10;60.70;;;;;;5106850;27;20617;-38
2022/07/24 12:56:18;;;;;;;5.97;4.38;;;14.10;60.60;;;;;;5100012;28;20195;-39
2022/07/24 12:59:07;;;;;;;5.00;4.35;;;14.10;60.80;;;;;;5086895;28;20198;-39
2022/07/24 13:01:52;;;;;;;4.20;3.80;;;14.10;60.80;;;;;;5086743;28;20717;-41
2022/07/24 13:04:23;;;;;;;4.35;3.90;;;14.00;60.60;;;;;;5086927;28;20244;-39
2022/07/24 13:06:55;;;;;;;4.93;3.88;;;14.00;60.70;;;;;;5087483;28;20194;-38
2022/07/24 13:09:29;;;;;;;4.97;4.30;;;14.10;60.70;;;;;;5104507;28;20205;-39
2022/07/24 13:12:00;;;;;;;4.60;4.13;;;14.00;60.70;;;;;;5107344;28;20244;-48
2022/07/24 13:14:30;;;;;;;4.75;3.95;;;14.00;60.70;;;;;;5107531;28;20223;-43
2022/07/24 13:17:08;;;;;;;4.65;4.05;;;14.00;60.70;;;;;;5107208;28;20641;-47
2022/07/24 13:19:39;;;;;;;4.80;4.00;;;14.00;60.60;;;;;;5107220;28;20197;-38
2022/07/24 13:22:11;;;;;;;4.85;4.20;;;14.00;60.60;;;;;;5090891;28;20229;-38